createdAt,value
2018-09-20T03:53:28.496Z,11.53
2018-09-20T03:55:56.568Z,12.07
2018-09-20T03:58:24.624Z,12.37
2018-09-20T04:00:59.134Z,11.23
2018-09-20T04:03:27.193Z,11.93
2018-09-20T04:05:55.271Z,11.67
2018-09-20T04:08:23.342Z,12.40
2018-09-20T04:10:51.398Z,12.43
2018-09-20T04:13:19.452Z,11.60
2018-09-20T04:15:47.716Z,12.23
2018-09-20T04:18:15.790Z,12.17
2018-09-20T04:20:43.965Z,11.53
2018-09-20T04:23:12.038Z,12.20
2018-09-20T04:25:40.135Z,11.60
2018-09-20T04:28:08.170Z,11.50
2018-09-20T04:30:36.243Z,12.27
2018-09-20T04:33:04.310Z,12.00
2018-09-20T04:35:32.385Z,12.13
2018-09-20T04:38:00.461Z,12.07
2018-09-20T04:40:28.562Z,12.07
2018-09-20T04:42:56.631Z,13.07
2018-09-20T04:45:24.714Z,12.40
2018-09-20T04:47:52.782Z,12.40
2018-09-20T04:50:20.854Z,12.63
2018-09-20T04:52:48.923Z,12.63
2018-09-20T04:55:16.986Z,12.60
2018-09-20T04:57:45.079Z,12.47
2018-09-20T05:00:13.146Z,11.87
2018-09-20T05:02:41.230Z,12.60
2018-09-20T05:05:09.314Z,12.03
2018-09-20T05:07:37.375Z,12.17
2018-09-20T05:10:05.534Z,13.37
2018-09-20T05:12:33.626Z,13.40
2018-09-20T05:15:01.770Z,12.87
2018-09-20T05:17:29.850Z,13.07
2018-09-20T05:19:57.933Z,12.50
2018-09-20T05:22:26.022Z,12.40
2018-09-20T05:24:54.097Z,12.40
2018-09-20T05:27:22.170Z,12.37
2018-09-20T05:29:50.254Z,11.80
2018-09-20T05:56:52.514Z,47.57
2018-09-20T05:59:20.662Z,11.23
2018-09-20T07:59:45.050Z,10.33
2018-09-20T08:04:40.541Z,10.40
2018-09-20T08:14:31.051Z,10.30
2018-09-20T08:21:54.242Z,9.65
2018-09-20T08:46:30.906Z,8.40
2018-09-20T09:08:38.646Z,7.90
2018-09-20T10:02:52.158Z,5.35
2018-09-20T10:05:20.220Z,5.50
2018-09-20T10:07:48.285Z,5.08
2018-09-20T10:10:16.639Z,5.95
2018-09-20T10:20:06.950Z,5.30
2018-09-20T10:22:34.978Z,4.90
2018-09-20T10:27:30.609Z,5.53
2018-09-20T10:32:26.122Z,5.05
2018-09-20T10:37:21.642Z,4.40
2018-09-20T10:39:49.730Z,5.25
2018-09-20T11:06:52.129Z,4.20
2018-09-20T12:13:13.207Z,4.87
2018-09-20T12:27:58.298Z,4.60
2018-09-20T12:30:26.381Z,4.90
2018-09-20T12:32:54.499Z,4.58
2018-09-20T12:52:34.461Z,4.70
2018-09-20T13:17:09.574Z,4.20
2018-09-20T13:22:05.050Z,4.20
2018-09-20T13:24:33.134Z,4.10
2018-09-20T13:27:01.179Z,4.27
2018-09-20T14:06:20.374Z,3.37
2018-09-20T15:10:15.924Z,3.10
2018-09-20T15:39:52.537Z,2.95
2018-09-20T15:49:42.950Z,3.20
2018-09-20T15:52:11.031Z,3.52
2018-09-20T15:54:39.098Z,4.00
2018-09-20T15:57:07.185Z,3.80
2018-09-20T15:59:35.254Z,3.80
2018-09-20T16:02:03.301Z,3.22
2018-09-20T16:04:31.381Z,3.52
2018-09-20T16:09:26.921Z,3.30
2018-09-20T16:11:55.000Z,4.10
2018-09-20T16:16:50.439Z,4.00
2018-09-20T16:29:19.646Z,3.90
2018-09-20T16:34:35.782Z,3.62
2018-09-20T16:37:19.202Z,3.58
2018-09-20T16:39:48.365Z,4.03
2018-09-20T16:42:18.146Z,4.10
2018-09-20T16:44:46.218Z,4.12
2018-09-20T16:49:41.698Z,3.80
2018-09-20T16:59:31.962Z,4.00
2018-09-20T17:02:00.026Z,3.60
2018-09-20T17:04:28.106Z,4.00
2018-09-20T17:06:56.170Z,3.58
2018-09-20T17:09:24.267Z,3.92
2018-09-20T17:11:52.345Z,3.90
2018-09-20T17:14:20.501Z,4.28
2018-09-20T17:16:48.531Z,3.65
2018-09-20T17:24:11.421Z,3.67
2018-09-20T17:29:07.049Z,4.08
2018-09-20T17:31:35.093Z,3.42
2018-09-20T17:34:03.142Z,3.92
2018-09-20T17:36:31.426Z,3.77
2018-09-20T17:39:00.273Z,4.33
2018-09-20T17:41:31.439Z,4.17
2018-09-20T17:44:01.533Z,3.95
2018-09-20T17:46:29.594Z,4.40
2018-09-20T17:48:57.679Z,4.17
2018-09-20T17:51:26.022Z,4.22
2018-09-20T17:53:54.484Z,4.20
2018-09-20T17:56:22.874Z,4.15
2018-09-20T17:58:51.386Z,4.25
2018-09-20T18:01:19.469Z,4.20
2018-09-20T18:03:47.526Z,4.50
2018-09-20T18:06:15.606Z,4.40
2018-09-20T18:08:43.678Z,4.10
2018-09-20T18:11:11.780Z,4.45
2018-09-20T18:13:39.869Z,4.87
2018-09-20T18:16:07.974Z,4.42
2018-09-20T18:18:36.042Z,4.30
2018-09-20T18:21:04.117Z,4.53
2018-09-20T18:23:32.206Z,4.28
2018-09-20T18:26:00.334Z,4.65
2018-09-20T18:28:28.413Z,5.08
2018-09-20T18:30:56.495Z,6.00
2018-09-20T18:33:24.566Z,4.53
2018-09-20T18:35:52.620Z,4.67
2018-09-20T18:38:20.682Z,4.42
2018-09-20T18:40:48.778Z,4.62
2018-09-20T18:43:16.905Z,4.37
2018-09-20T18:45:45.002Z,4.50
2018-09-20T18:48:13.065Z,4.58
2018-09-20T18:50:41.138Z,4.95
2018-09-20T18:53:09.447Z,6.17
2018-09-20T19:12:50.527Z,5.53
2018-09-20T19:15:18.626Z,5.10
2018-09-20T19:17:46.693Z,5.47
2018-09-20T19:30:04.423Z,5.25
2018-09-20T19:32:32.492Z,5.00
2018-09-20T19:47:17.814Z,5.60
2018-09-20T20:22:35.921Z,6.07
2018-09-20T20:25:04.023Z,6.22
2018-09-20T20:27:32.091Z,6.00
2018-09-20T22:20:41.595Z,7.43
2018-09-20T22:25:37.074Z,6.90
2018-09-20T22:32:59.980Z,7.45
